»·PEaware :: WAT175 KSAN-KTUS

WAT175 :: KSAN-KTUS

FLIGHT INFORMATION

Flight Status: Arrived
Operator:
Walker Air Transport
More flights by this operator :: More flights under this callsign
Pilot: Michael C. (27126)
Aircraft: BOEING 737-800
(B738)
More flights by this aircraft type
Origin: KSAN San Diego Intl-Lindbergh
United States
Destination: KTUS Tucson Intl
United States
More flights between these airports :: More routes between these airports
Route: +ZZOOO2 IPL J2 GBN DINGO5
File this flight plan on PilotEdge
Remarks: RMK / SIMBRIEF
Altitude:
(Current/Filed)
37,000ft
Speed:
(Current/Filed)
457kts
Departed: 01-Oct-20 04:20 PM
Arrived: 01-Oct-20 05:15 PM
Distance/Time
Traveled:
319nm/0:55
Distance/Time
To Go:
Arrived

Flight Plot

Page will automatically refresh every two minutes.

Flight plan parsing failed; only flown route is shown


Map Options




Map Legend


Flown Route
Filed Route
Departure Airport
Arrival Airport
Navaid (VOR, NDB)
Fix

Horizontal Profiles

Position Reports

Time Latitude Longitude Heading Altitude Ground
Speed
01-Oct-20 15:56 32.733379 -117.204671 77 25ft 0kts
01-Oct-20 15:57 32.733379 -117.204671 77 25ft 0kts
01-Oct-20 15:58 32.733379 -117.204671 77 25ft 0kts
01-Oct-20 15:59 32.733379 -117.204671 77 25ft 0kts
01-Oct-20 16:00 32.733379 -117.204671 77 25ft 0kts
01-Oct-20 16:01 32.733379 -117.204671 77 25ft 0kts
01-Oct-20 16:02 32.733379 -117.204671 77 25ft 0kts
01-Oct-20 16:03 32.733379 -117.204671 77 25ft 0kts
01-Oct-20 16:04 32.733379 -117.204671 77 25ft 0kts
01-Oct-20 16:05 32.733379 -117.204671 77 25ft 0kts
01-Oct-20 16:06 32.733379 -117.204671 77 25ft 0kts
01-Oct-20 16:07 32.733378 -117.204671 77 25ft 0kts
01-Oct-20 16:08 32.733363 -117.205106 87 25ft 2kts
01-Oct-20 16:09 32.733345 -117.205723 62 25ft 1kts
01-Oct-20 16:10 32.733280 -117.205797 40 25ft 0kts
01-Oct-20 16:11 32.733878 -117.205562 2 25ft 10kts
01-Oct-20 16:12 32.735012 -117.205210 48 25ft 11kts
01-Oct-20 16:13 32.734952 -117.199832 103 25ft 21kts
01-Oct-20 16:14 32.733272 -117.192775 106 25ft 21kts
01-Oct-20 16:15 32.731760 -117.186573 106 25ft 19kts
01-Oct-20 16:16 32.730639 -117.181934 106 25ft 17kts
01-Oct-20 16:17 32.729505 -117.177165 97 25ft 11kts
01-Oct-20 16:18 32.729536 -117.176713 77 25ft 1kts
01-Oct-20 16:19 32.731332 -117.180793 285 25ft 86kts
01-Oct-20 16:20 32.749808 -117.256271 285 2626ft 229kts
01-Oct-20 16:21 32.736115 -117.325097 203 5917ft 257kts
01-Oct-20 16:22 32.669842 -117.288001 136 8765ft 298kts
01-Oct-20 16:23 32.627102 -117.201360 95 10929ft 347kts
01-Oct-20 16:24 32.617069 -117.084255 95 13797ft 364kts
01-Oct-20 16:25 32.606198 -116.962830 95 16452ft 378kts
01-Oct-20 16:26 32.617225 -116.838625 75 18804ft 387kts
01-Oct-20 16:27 32.636036 -116.710862 81 20953ft 401kts
01-Oct-20 16:28 32.649402 -116.577475 82 22913ft 412kts
01-Oct-20 16:29 32.662794 -116.440751 82 24697ft 423kts
01-Oct-20 16:30 32.676352 -116.300392 82 26298ft 434kts
01-Oct-20 16:31 32.690081 -116.156573 82 27744ft 444kts
01-Oct-20 16:32 32.703925 -116.009332 83 29107ft 453kts
01-Oct-20 16:33 32.717452 -115.859312 83 30407ft 460kts
01-Oct-20 16:34 32.731128 -115.709248 83 31993ft 456kts
01-Oct-20 16:35 32.744640 -115.560360 83 33520ft 451kts
01-Oct-20 16:36 32.751326 -115.412717 87 34888ft 447kts
01-Oct-20 16:37 32.754814 -115.266391 88 36097ft 443kts
01-Oct-20 16:38 32.758207 -115.120307 87 37006ft 446kts
01-Oct-20 16:39 32.761539 -114.969251 88 37000ft 465kts
01-Oct-20 16:40 32.764423 -114.815831 88 36942ft 463kts
01-Oct-20 16:41 32.767314 -114.663315 88 36890ft 463kts
01-Oct-20 16:42 32.769710 -114.510186 88 36889ft 463kts
01-Oct-20 16:43 32.771712 -114.357217 88 36889ft 463kts
01-Oct-20 16:44 32.773688 -114.203909 89 36890ft 463kts
01-Oct-20 16:45 32.775501 -114.051098 89 36890ft 463kts
01-Oct-20 16:46 32.787937 -113.898808 80 36890ft 463kts
01-Oct-20 16:47 32.808680 -113.747608 80 36890ft 463kts
01-Oct-20 16:48 32.829835 -113.596412 80 36901ft 463kts
01-Oct-20 16:49 32.850852 -113.446467 80 36899ft 448kts
01-Oct-20 16:50 32.870561 -113.305682 80 34666ft 438kts
01-Oct-20 16:51 32.890485 -113.162510 80 31817ft 440kts
01-Oct-20 16:52 32.909987 -113.021224 80 29522ft 425kts
01-Oct-20 16:53 32.928653 -112.884648 79 27332ft 411kts
01-Oct-20 16:54 32.946536 -112.752446 80 25185ft 400kts
01-Oct-20 16:55 32.930634 -112.623675 108 23913ft 398kts
01-Oct-20 16:56 32.888261 -112.500290 112 23907ft 401kts
01-Oct-20 16:57 32.842595 -112.379160 113 23907ft 402kts
01-Oct-20 16:58 32.795901 -112.257603 113 23324ft 400kts
01-Oct-20 16:59 32.749993 -112.139016 113 22324ft 392kts
01-Oct-20 17:00 32.704885 -112.023036 113 21229ft 376kts
01-Oct-20 17:01 32.661399 -111.911665 113 19180ft 370kts
01-Oct-20 17:02 32.618145 -111.801619 113 17129ft 363kts
01-Oct-20 17:03 32.575926 -111.694347 113 15083ft 357kts
01-Oct-20 17:05 32.527155 -111.593607 125 13024ft 352kts
01-Oct-20 17:06 32.481810 -111.495818 103 11973ft 336kts
01-Oct-20 17:07 32.455991 -111.388461 105 11982ft 337kts
01-Oct-20 17:08 32.418866 -111.297154 130 11917ft 300kts
01-Oct-20 17:09 32.359345 -111.225862 134 9324ft 313kts
01-Oct-20 17:10 32.297652 -111.153004 134 6445ft 307kts
01-Oct-20 17:11 32.243456 -111.089115 134 5968ft 240kts
01-Oct-20 17:12 32.198879 -111.036357 134 4701ft 206kts
01-Oct-20 17:13 32.163092 -110.994379 135 3720ft 172kts
01-Oct-20 17:14 32.128734 -110.954056 135 2746ft 174kts
01-Oct-20 17:15 32.106672 -110.928094 88 2598ft 17kts
01-Oct-20 17:16 32.108537 -110.927941 314 2598ft 28kts
01-Oct-20 17:17 32.114367 -110.934814 315 2598ft 26kts
01-Oct-20 17:18 32.118556 -110.937263 36 2598ft 9kts
01-Oct-20 17:19 32.118596 -110.937228 37 2598ft 0kts

Navigation Log

Ident Type
Flight plan parsing failed, navigation log unavailable